Time;durP1;ratioP1;P1;durP2;ratioP2;P2;SDS_P1;SDS_P2;PMS_P1;PMS_P2;Temp;Humidity;BMP_temperature;BMP_pressure;BME280_temperature;BME280_humidity;BME280_pressure;Samples;Min_cycle;Max_cycle;Signal;HPM_P1;HPM_P2
2023/06/28 00:02:15;;;;;;;2.70;1.60;;;;;;;13.52;99.88;98757.04;109303;1254;59220;-77
2023/06/28 00:04:41;;;;;;;2.40;1.40;;;;;;;13.55;99.98;98757.16;109131;1255;64453;-77
2023/06/28 00:07:08;;;;;;;3.10;1.70;;;;;;;13.57;99.98;98755.52;109346;1254;59345;-77
2023/06/28 00:09:35;;;;;;;2.70;1.30;;;;;;;13.59;99.97;98753.05;109343;1254;63900;-78
2023/06/28 00:12:03;;;;;;;5.20;1.80;;;;;;;13.61;99.62;98750.23;109314;1254;59298;-79
2023/06/28 00:14:29;;;;;;;3.50;1.60;;;;;;;13.63;99.58;98747.45;109338;1254;58862;-78
2023/06/28 00:16:56;;;;;;;2.60;1.70;;;;;;;13.65;99.56;98746.77;109335;1254;64826;-77
2023/06/28 00:19:26;;;;;;;3.90;1.80;;;;;;;13.67;99.55;98743.68;109327;1254;59424;-77
2023/06/28 00:21:56;;;;;;;2.70;1.40;;;;;;;13.69;99.60;98743.85;109336;1254;62609;-77
2023/06/28 00:24:23;;;;;;;3.50;1.60;;;;;;;13.71;99.50;98743.69;109273;1254;59017;-78
2023/06/28 00:26:50;;;;;;;3.70;1.90;;;;;;;13.72;98.18;98744.83;109357;1254;58870;-78
2023/06/28 00:29:16;;;;;;;1.70;1.50;;;;;;;13.75;98.44;98742.17;109320;1254;64485;-78
2023/06/28 00:31:43;;;;;;;4.30;1.60;;;;;;;13.76;98.61;98742.39;109317;1254;59250;-78
2023/06/28 00:34:09;;;;;;;2.10;1.30;;;;;;;13.77;98.45;98738.03;109280;1254;64142;-77
2023/06/28 00:36:36;;;;;;;2.90;1.50;;;;;;;13.78;98.47;98738.13;109326;1254;59044;-77
2023/06/28 00:39:03;;;;;;;3.10;1.80;;;;;;;13.79;98.38;98740.51;109305;1254;59069;-77
2023/06/28 00:41:30;;;;;;;3.00;1.90;;;;;;;13.79;98.03;98735.91;109298;1254;64593;-78
2023/06/28 00:44:14;;;;;;;2.60;1.80;;;;;;;13.82;97.92;98739.17;102623;1290;601079;-78
2023/06/28 00:46:40;;;;;;;4.30;2.00;;;;;;;13.80;97.65;98741.19;105038;1269;59375;-78
2023/06/28 00:49:07;;;;;;;5.50;2.30;;;;;;;13.80;97.25;98737.25;105397;1257;59344;-78
2023/06/28 00:51:35;;;;;;;2.40;1.50;;;;;;;13.80;97.39;98736.90;105405;1258;59356;-79
2023/06/28 00:54:02;;;;;;;3.60;1.90;;;;;;;13.79;97.29;98737.80;105491;1263;59235;-80
2023/06/28 00:56:29;;;;;;;2.00;1.80;;;;;;;13.80;97.35;98737.25;105424;1258;64166;-77
2023/06/28 00:58:55;;;;;;;2.10;1.70;;;;;;;13.79;97.30;98736.39;105488;1256;151044;-78
2023/06/28 01:01:23;;;;;;;2.00;1.70;;;;;;;13.79;97.13;98735.91;105588;1256;59112;-76
2023/06/28 01:03:53;;;;;;;2.80;1.60;;;;;;;13.79;97.02;98733.71;105577;1255;64598;-77
2023/06/28 01:06:21;;;;;;;3.60;1.60;;;;;;;13.79;96.62;98730.33;105674;1260;59491;-77
2023/06/28 01:08:49;;;;;;;3.50;1.70;;;;;;;13.79;96.20;98728.94;105664;1257;64558;-77
2023/06/28 01:11:16;;;;;;;3.40;1.70;;;;;;;13.79;95.56;98733.02;105608;1258;59749;-77
2023/06/28 01:13:44;;;;;;;4.90;1.50;;;;;;;13.78;95.30;98733.11;105604;1259;59538;-78
2023/06/28 01:16:10;;;;;;;4.50;2.00;;;;;;;13.77;95.24;98730.19;105608;1257;64760;-77
2023/06/28 01:18:37;;;;;;;2.50;1.90;;;;;;;13.75;95.06;98729.40;105613;1256;59563;-76
2023/06/28 01:21:07;;;;;;;3.70;1.90;;;;;;;13.75;95.01;98729.09;105299;1261;64463;-78
2023/06/28 01:23:35;;;;;;;3.50;2.10;;;;;;;13.74;94.30;98729.33;105547;1258;59733;-76
2023/06/28 01:26:02;;;;;;;5.60;2.20;;;;;;;13.73;94.08;98731.78;105415;1263;59647;-79
2023/06/28 01:28:30;;;;;;;2.80;1.90;;;;;;;13.71;93.94;98729.48;105626;1260;65085;-76
2023/06/28 01:30:59;;;;;;;2.90;1.80;;;;;;;13.67;93.81;98730.66;105666;1260;59823;-77
2023/06/28 01:33:26;;;;;;;4.60;2.30;;;;;;;13.63;93.64;98728.52;105647;1258;73388;-78
2023/06/28 01:35:53;;;;;;;2.10;2.00;;;;;;;13.57;93.92;98731.27;105595;1260;59807;-77
2023/06/28 01:38:21;;;;;;;3.50;2.10;;;;;;;13.52;93.96;98732.48;105654;1255;59640;-78
2023/06/28 01:40:50;;;;;;;3.80;2.20;;;;;;;13.45;94.33;98735.35;105738;1257;64130;-76
2023/06/28 01:43:18;;;;;;;3.80;1.90;;;;;;;13.38;94.88;98738.22;105637;1257;60919;-77
2023/06/28 01:45:45;;;;;;;3.40;2.00;;;;;;;13.31;95.32;98737.05;105642;1261;64607;-78
2023/06/28 01:48:12;;;;;;;2.60;1.80;;;;;;;13.24;96.40;98738.98;105613;1259;59625;-77
2023/06/28 01:50:39;;;;;;;4.70;1.80;;;;;;;13.20;98.25;98740.57;105645;1259;60988;-78
2023/06/28 01:53:07;;;;;;;4.10;1.70;;;;;;;13.16;99.04;98733.95;105632;1260;64907;-78
2023/06/28 01:55:33;;;;;;;3.40;2.10;;;;;;;13.13;99.85;98730.64;105555;1257;59782;-78
2023/06/28 01:58:00;;;;;;;2.70;1.70;;;;;;;13.08;100.00;98727.83;105486;1260;64461;-78
2023/06/28 02:00:33;;;;;;;4.10;2.00;;;;;;;13.03;100.00;98724.99;105522;1260;59621;-77
2023/06/28 02:02:59;;;;;;;2.30;1.80;;;;;;;12.99;100.00;98729.60;105556;1260;59553;-78
2023/06/28 02:05:26;;;;;;;3.30;2.00;;;;;;;12.96;100.00;98726.68;105606;1260;65873;-77
2023/06/28 02:07:53;;;;;;;3.00;1.90;;;;;;;12.92;100.00;98730.15;105620;1260;59656;-77
2023/06/28 02:10:25;;;;;;;5.00;2.40;;;;;;;12.88;100.00;98727.25;105578;1259;64817;-78
2023/06/28 02:12:52;;;;;;;4.20;2.10;;;;;;;12.85;100.00;98723.98;105608;1260;59723;-76
2023/06/28 02:15:18;;;;;;;2.40;2.20;;;;;;;12.82;100.00;98726.02;105541;1260;59589;-78
2023/06/28 02:17:47;;;;;;;2.10;1.90;;;;;;;12.79;100.00;98727.66;105631;1260;64522;-78
2023/06/28 02:20:14;;;;;;;4.80;2.20;;;;;;;12.77;100.00;98730.34;105568;1257;59745;-77
2023/06/28 02:22:41;;;;;;;4.50;2.20;;;;;;;12.75;100.00;98732.45;105605;1260;64861;-77
2023/06/28 02:25:08;;;;;;;4.70;2.20;;;;;;;12.72;100.00;98728.08;105977;1254;59632;-79
2023/06/28 02:27:34;;;;;;;3.70;2.10;;;;;;;12.69;100.00;98730.64;105855;1253;60120;-77
2023/06/28 02:30:01;;;;;;;2.20;1.90;;;;;;;12.66;100.00;98727.27;105996;1255;73828;-78
2023/06/28 02:32:30;;;;;;;3.10;2.40;;;;;;;12.64;100.00;98729.25;106075;1257;59611;-77
2023/06/28 02:34:57;;;;;;;4.40;3.10;;;;;;;12.61;100.00;98729.98;105648;1257;64797;-78
2023/06/28 02:37:24;;;;;;;6.80;2.70;;;;;;;12.59;100.00;98729.23;106026;1253;59733;-77
2023/06/28 02:39:51;;;;;;;3.20;2.30;;;;;;;12.58;100.00;98729.54;105689;1257;59716;-78
2023/06/28 02:42:18;;;;;;;4.20;3.00;;;;;;;12.56;100.00;98726.63;105986;1251;64151;-77
2023/06/28 02:44:45;;;;;;;3.50;2.00;;;;;;;12.56;100.00;98730.24;106091;1255;60227;-75
2023/06/28 02:47:11;;;;;;;4.30;2.40;;;;;;;12.55;100.00;98727.98;106070;1256;64723;-76
2023/06/28 02:49:38;;;;;;;4.90;2.10;;;;;;;12.54;100.00;98731.08;105675;1259;59672;-77
2023/06/28 02:52:05;;;;;;;5.50;2.70;;;;;;;12.53;100.00;98729.71;105979;1251;59682;-78
2023/06/28 02:54:31;;;;;;;5.30;2.30;;;;;;;12.53;100.00;98726.17;105995;1256;64461;-77
2023/06/28 02:56:58;;;;;;;3.80;2.30;;;;;;;12.53;100.00;98726.70;105930;1257;59711;-78
2023/06/28 02:59:25;;;;;;;4.30;2.40;;;;;;;12.55;100.00;98731.89;106003;1257;59641;-77
2023/06/28 03:01:51;;;;;;;3.60;2.60;;;;;;;12.56;100.00;98734.11;105988;1256;59701;-77
2023/06/28 03:04:18;;;;;;;3.00;2.50;;;;;;;12.59;100.00;98731.97;105986;1257;59535;-79
2023/06/28 03:06:49;;;;;;;3.90;2.40;;;;;;;12.61;100.00;98728.38;106000;1256;64581;-78
2023/06/28 03:09:15;;;;;;;4.50;2.20;;;;;;;12.64;100.00;98722.79;105835;1260;59910;-79
2023/06/28 03:11:42;;;;;;;5.90;2.20;;;;;;;12.67;100.00;98728.08;105755;1257;64359;-78
2023/06/28 03:14:09;;;;;;;3.00;2.00;;;;;;;12.70;100.00;98730.14;105936;1256;59594;-79
2023/06/28 03:16:35;;;;;;;2.30;2.00;;;;;;;12.74;100.00;98730.40;105913;1251;59710;-77
2023/06/28 03:19:02;;;;;;;4.50;2.50;;;;;;;12.77;100.00;98731.80;105840;1251;59643;-77
2023/06/28 03:21:28;;;;;;;3.50;2.30;;;;;;;12.79;100.00;98732.48;105980;1257;60841;-78
2023/06/28 03:23:55;;;;;;;3.40;2.20;;;;;;;12.82;100.00;98731.02;105926;1256;59611;-78
2023/06/28 03:26:21;;;;;;;4.50;2.20;;;;;;;12.83;100.00;98729.98;105963;1251;59548;-77
2023/06/28 03:28:48;;;;;;;6.10;2.10;;;;;;;12.87;100.00;98725.44;105952;1251;59721;-78
2023/06/28 03:31:14;;;;;;;3.10;2.20;;;;;;;13.01;100.00;98721.45;105983;1257;59685;-78
2023/06/28 03:33:41;;;;;;;4.50;2.20;;;;;;;13.84;100.00;98722.98;105575;1260;59832;-77
2023/06/28 03:36:07;;;;;;;3.60;2.00;;;;;;;15.05;100.00;98718.65;105902;1251;59640;-77
2023/06/28 03:38:34;;;;;;;3.00;1.90;;;;;;;16.19;96.24;98717.30;105912;1257;59641;-78
2023/06/28 03:41:00;;;;;;;2.70;1.80;;;;;;;17.13;89.40;98715.27;105957;1253;59537;-78
2023/06/28 03:43:27;;;;;;;3.30;2.00;;;;;;;17.96;84.87;98719.44;105657;1257;65004;-78
2023/06/28 03:45:54;;;;;;;2.30;1.80;;;;;;;18.73;81.31;98719.89;105609;1258;60702;-78
2023/06/28 03:48:21;;;;;;;3.60;2.00;;;;;;;19.42;78.45;98719.45;105872;1257;59724;-76
2023/06/28 03:50:48;;;;;;;2.20;1.50;;;;;;;20.03;75.87;98717.88;105944;1251;59634;-79
2023/06/28 03:53:15;;;;;;;2.40;1.40;;;;;;;20.64;73.29;98718.20;105923;1255;59726;-77
2023/06/28 03:55:41;;;;;;;1.90;1.30;;;;;;;21.13;71.07;98715.93;105971;1251;64361;-79
2023/06/28 03:58:08;;;;;;;2.40;1.20;;;;;;;21.50;68.50;98713.10;105975;1256;59736;-78
2023/06/28 04:00:34;;;;;;;2.50;1.50;;;;;;;21.76;66.53;98716.20;105971;1257;59717;-77
2023/06/28 04:03:02;;;;;;;1.70;1.30;;;;;;;22.08;65.27;98722.57;105962;1251;59730;-77
2023/06/28 04:05:30;;;;;;;1.90;1.20;;;;;;;22.52;64.30;98720.70;105516;1267;59678;-78
2023/06/28 04:07:58;;;;;;;2.70;1.50;;;;;;;22.91;62.68;98729.25;105908;1257;64725;-79
2023/06/28 04:10:25;;;;;;;1.80;1.20;;;;;;;23.29;62.15;98729.93;105991;1254;59817;-79
2023/06/28 04:12:52;;;;;;;2.70;1.30;;;;;;;23.71;60.96;98732.39;105908;1254;64610;-77
2023/06/28 04:15:19;;;;;;;1.50;1.30;;;;;;;24.11;59.39;98737.67;105901;1254;59842;-79
2023/06/28 04:17:45;;;;;;;3.60;1.40;;;;;;;24.47;57.42;98739.58;105780;1267;59685;-77
2023/06/28 04:20:12;;;;;;;2.80;1.10;;;;;;;24.72;56.98;98739.64;105911;1257;59619;-77
2023/06/28 04:22:39;;;;;;;2.20;1.40;;;;;;;24.54;56.02;98740.52;105854;1254;60710;-79
2023/06/28 04:25:05;;;;;;;3.30;1.30;;;;;;;23.62;56.11;98743.56;105873;1253;64761;-76
2023/06/28 04:27:32;;;;;;;2.70;1.20;;;;;;;22.47;57.60;98747.38;105879;1256;59723;-77
2023/06/28 04:29:58;;;;;;;4.00;1.50;;;;;;;21.50;58.82;98743.11;105878;1256;59791;-79
2023/06/28 04:32:26;;;;;;;3.50;1.30;;;;;;;20.67;59.80;98747.88;105890;1254;63850;-79
2023/06/28 04:34:53;;;;;;;1.30;1.20;;;;;;;19.99;60.66;98747.34;105990;1257;60508;-78
2023/06/28 04:37:20;;;;;;;1.90;1.50;;;;;;;19.46;61.75;98749.84;105910;1256;64605;-78
2023/06/28 04:39:47;;;;;;;3.20;1.50;;;;;;;19.19;62.93;98749.49;105898;1255;59586;-79
2023/06/28 04:42:14;;;;;;;2.30;1.20;;;;;;;19.13;63.36;98751.51;105956;1257;59510;-81
2023/06/28 04:44:46;;;;;;;2.70;1.30;;;;;;;19.46;63.33;98750.36;105891;1254;64602;-77
2023/06/28 04:47:17;;;;;;;2.00;1.40;;;;;;;19.79;62.90;98749.49;105913;1257;59923;-77
2023/06/28 04:49:49;;;;;;;2.10;1.40;;;;;;;19.89;62.35;98749.70;105944;1255;63608;-80
2023/06/28 04:52:18;;;;;;;2.90;1.00;;;;;;;19.84;62.27;98749.19;105945;1257;60536;-82
2023/06/28 04:54:46;;;;;;;3.00;1.70;;;;;;;20.16;61.81;98747.09;105886;1254;60902;-79
2023/06/28 04:57:13;;;;;;;2.20;1.60;;;;;;;20.56;61.27;98748.41;105921;1252;65589;-78
2023/06/28 04:59:40;;;;;;;2.50;1.60;;;;;;;21.23;60.27;98746.23;105897;1257;60787;-80
2023/06/28 05:02:09;;;;;;;2.10;1.20;;;;;;;21.87;59.09;98741.99;106048;1265;64105;-79
2023/06/28 05:04:37;;;;;;;3.30;1.90;;;;;;;22.43;58.06;98731.77;105629;1257;60486;-79
2023/06/28 05:07:05;;;;;;;4.30;1.40;;;;;;;22.80;57.04;98731.66;105710;1259;60464;-78
2023/06/28 05:09:33;;;;;;;2.30;1.20;;;;;;;22.92;55.99;98731.65;106137;1254;64311;-79
2023/06/28 05:12:01;;;;;;;2.10;1.40;;;;;;;23.26;54.17;98732.32;105885;1256;60354;-78
2023/06/28 05:14:30;;;;;;;2.50;1.50;;;;;;;23.54;53.14;98735.60;105963;1257;64744;-79
2023/06/28 05:16:57;;;;;;;2.70;1.40;;;;;;;23.84;51.89;98735.61;105923;1254;60339;-80
2023/06/28 05:19:24;;;;;;;2.70;1.40;;;;;;;24.28;52.09;98730.73;105874;1254;60338;-79
2023/06/28 05:21:51;;;;;;;1.80;1.30;;;;;;;24.75;50.88;98724.48;105912;1252;64916;-78
2023/06/28 05:24:19;;;;;;;3.30;1.50;;;;;;;25.09;50.36;98723.05;105750;1257;60683;-78
2023/06/28 05:26:46;;;;;;;2.60;1.40;;;;;;;25.36;49.46;98719.98;105885;1257;65355;-78
2023/06/28 05:29:13;;;;;;;2.30;1.60;;;;;;;25.06;48.96;98721.71;105905;1252;60459;-79
2023/06/28 05:31:41;;;;;;;3.50;1.30;;;;;;;25.13;48.94;98717.61;105870;1256;60329;-79
2023/06/28 05:34:07;;;;;;;4.00;1.30;;;;;;;24.99;48.78;98714.21;105878;1257;65777;-78
2023/06/28 05:36:34;;;;;;;4.00;1.40;;;;;;;24.98;47.91;98721.08;105900;1253;60329;-77
2023/06/28 05:39:01;;;;;;;1.70;1.50;;;;;;;25.18;47.52;98722.33;105917;1254;63958;-77
2023/06/28 05:41:27;;;;;;;2.80;1.50;;;;;;;25.32;46.98;98727.77;105897;1258;60427;-77
2023/06/28 05:43:54;;;;;;;2.80;1.50;;;;;;;25.35;45.99;98731.48;105881;1257;60462;-79
2023/06/28 05:46:21;;;;;;;2.50;1.90;;;;;;;25.14;45.72;98731.20;105556;1254;65938;-79
2023/06/28 05:48:50;;;;;;;2.50;1.80;;;;;;;24.86;46.02;98732.52;105869;1252;60855;-79
2023/06/28 05:51:17;;;;;;;3.60;1.50;;;;;;;24.79;45.62;98733.23;105914;1255;64040;-80
2023/06/28 05:53:43;;;;;;;1.90;1.30;;;;;;;24.68;45.78;98730.89;105866;1257;60425;-79
2023/06/28 05:56:10;;;;;;;3.50;1.70;;;;;;;24.39;46.98;98736.06;105859;1254;60536;-79
2023/06/28 05:58:37;;;;;;;3.00;1.60;;;;;;;23.60;48.50;98744.64;105900;1254;75134;-79
2023/06/28 06:01:03;;;;;;;3.40;1.80;;;;;;;22.80;50.31;98739.71;105901;1254;60555;-79
2023/06/28 06:03:30;;;;;;;3.90;1.40;;;;;;;22.10;53.06;98738.95;105925;1256;60463;-79
2023/06/28 06:05:57;;;;;;;3.80;2.10;;;;;;;21.07;54.97;98743.63;105937;1252;60539;-78
2023/06/28 06:08:24;;;;;;;5.00;2.00;;;;;;;20.06;57.02;98749.63;105920;1254;60347;-80
2023/06/28 06:10:50;;;;;;;4.30;1.80;;;;;;;19.43;58.87;98752.98;105899;1257;65850;-79
2023/06/28 06:13:17;;;;;;;4.20;1.80;;;;;;;19.24;60.12;98749.65;105908;1254;60514;-78
2023/06/28 06:15:44;;;;;;;2.70;1.70;;;;;;;19.74;60.23;98746.23;105936;1254;65581;-80
2023/06/28 06:18:10;;;;;;;6.50;1.70;;;;;;;20.47;60.26;98738.90;105888;1254;60370;-78
2023/06/28 06:20:37;;;;;;;2.40;1.90;;;;;;;21.02;60.30;98736.67;105927;1254;60515;-80
2023/06/28 06:23:07;;;;;;;4.30;2.70;;;;;;;21.20;59.81;98734.23;105989;1256;65999;-83
2023/06/28 06:25:52;;;;;;;5.70;2.50;;;;;;;21.78;58.97;98732.44;102242;1294;600503;-78
2023/06/28 06:28:19;;;;;;;4.60;2.60;;;;;;;22.32;58.64;98729.48;104919;1267;59299;-79
2023/06/28 06:30:45;;;;;;;5.10;2.10;;;;;;;22.67;57.86;98731.14;104897;1270;59292;-80
2023/06/28 06:33:12;;;;;;;4.50;2.30;;;;;;;23.00;58.09;98733.39;104959;1267;64393;-80
2023/06/28 06:35:39;;;;;;;3.50;2.30;;;;;;;23.30;57.05;98732.54;104940;1267;61691;-78
2023/06/28 06:38:05;;;;;;;4.80;2.20;;;;;;;23.52;56.39;98730.45;104933;1270;64580;-80
2023/06/28 06:40:33;;;;;;;3.00;2.10;;;;;;;23.66;55.72;98727.85;104936;1264;153097;-79
2023/06/28 06:43:00;;;;;;;2.10;1.50;;;;;;;23.65;53.29;98730.59;104970;1264;59341;-79
2023/06/28 06:45:27;;;;;;;2.50;2.10;;;;;;;23.49;53.60;98728.20;105047;1264;64171;-80
2023/06/28 06:47:53;;;;;;;3.40;1.70;;;;;;;23.61;54.17;98728.91;104797;1271;59332;-79
2023/06/28 06:50:20;;;;;;;2.90;1.70;;;;;;;23.14;53.86;98727.94;105568;1254;65790;-79
2023/06/28 06:52:47;;;;;;;4.00;1.70;;;;;;;22.59;53.72;98725.90;105679;1257;59640;-80
2023/06/28 06:55:13;;;;;;;5.20;1.70;;;;;;;22.19;54.79;98729.15;105708;1254;59634;-80
2023/06/28 06:57:40;;;;;;;2.40;1.80;;;;;;;21.82;55.59;98727.58;105734;1254;64051;-79
2023/06/28 07:00:08;;;;;;;3.90;1.60;;;;;;;21.51;56.26;98721.51;105736;1257;59988;-79
2023/06/28 07:02:35;;;;;;;3.30;2.10;;;;;;;21.76;56.43;98722.88;105729;1260;62901;-79
2023/06/28 07:05:02;;;;;;;2.60;2.10;;;;;;;22.44;55.70;98719.08;105746;1255;59621;-81
2023/06/28 07:07:29;;;;;;;3.70;1.90;;;;;;;22.62;54.91;98718.48;105835;1257;59641;-80
2023/06/28 07:09:55;;;;;;;4.00;1.70;;;;;;;22.05;54.92;98716.55;105831;1253;64294;-81
2023/06/28 07:12:22;;;;;;;3.40;1.50;;;;;;;21.53;56.03;98718.73;105794;1253;59741;-83
2023/06/28 07:14:49;;;;;;;2.30;1.50;;;;;;;21.23;56.95;98725.84;105976;1257;64648;-80
2023/06/28 07:17:16;;;;;;;3.00;1.50;;;;;;;20.89;57.28;98728.33;105737;1253;59642;-80
2023/06/28 07:19:42;;;;;;;4.50;1.60;;;;;;;20.67;57.70;98729.73;105775;1257;59634;-82
2023/06/28 07:22:09;;;;;;;3.90;1.70;;;;;;;20.52;58.67;98726.95;105778;1257;59505;-80
2023/06/28 07:24:35;;;;;;;2.60;1.60;;;;;;;20.57;59.70;98725.76;105774;1253;59543;-80
2023/06/28 07:27:02;;;;;;;4.40;1.40;;;;;;;20.52;60.03;98725.05;105777;1253;64669;-82
2023/06/28 07:29:29;;;;;;;3.90;1.70;;;;;;;20.65;59.94;98724.26;105799;1257;59717;-80
2023/06/28 07:31:56;;;;;;;4.00;1.70;;;;;;;21.15;59.27;98716.23;105764;1253;59642;-79
2023/06/28 07:34:22;;;;;;;3.80;2.00;;;;;;;21.58;59.00;98711.25;105786;1257;64390;-79
2023/06/28 07:36:49;;;;;;;2.60;1.60;;;;;;;21.78;59.52;98707.07;105765;1253;61098;-81
2023/06/28 07:39:15;;;;;;;3.30;2.00;;;;;;;21.99;59.53;98699.16;105756;1253;59623;-80
2023/06/28 07:41:42;;;;;;;3.50;1.90;;;;;;;22.13;59.36;98702.57;105719;1257;59631;-80
2023/06/28 07:44:08;;;;;;;3.50;1.50;;;;;;;21.95;58.62;98698.55;105757;1256;59635;-80
2023/06/28 07:46:35;;;;;;;3.40;1.70;;;;;;;21.79;58.17;98701.45;105723;1257;59598;-79
2023/06/28 07:49:02;;;;;;;2.20;1.30;;;;;;;21.72;58.30;98701.29;105743;1252;60259;-79
2023/06/28 07:51:29;;;;;;;1.40;1.10;;;;;;;21.81;57.97;98700.81;105752;1254;64839;-79
2023/06/28 07:53:55;;;;;;;4.70;1.40;;;;;;;21.65;57.62;98702.29;105780;1257;59725;-79
2023/06/28 07:56:22;;;;;;;1.80;1.10;;;;;;;21.36;57.64;98703.52;105485;1253;59623;-80
2023/06/28 07:58:48;;;;;;;2.60;1.20;;;;;;;21.19;58.39;98704.77;105774;1255;65154;-80
2023/06/28 08:01:15;;;;;;;1.90;1.20;;;;;;;21.22;59.05;98705.25;105776;1256;59616;-80
2023/06/28 08:03:41;;;;;;;50.40;15.10;;;;;;;21.34;58.35;98701.96;105723;1257;65830;-77
2023/06/28 08:06:08;;;;;;;6.70;1.70;;;;;;;21.53;58.58;98694.34;105788;1254;59613;-79
2023/06/28 08:08:35;;;;;;;2.20;1.50;;;;;;;21.92;58.33;98692.42;105804;1257;59551;-80
2023/06/28 08:11:02;;;;;;;2.30;1.40;;;;;;;21.98;57.87;98687.42;105811;1252;65790;-82
2023/06/28 08:13:28;;;;;;;5.30;2.10;;;;;;;21.73;57.24;98688.73;105836;1257;60881;-81
2023/06/28 08:15:55;;;;;;;8.20;1.80;;;;;;;21.53;57.38;98688.17;105775;1252;64097;-79
2023/06/28 08:18:22;;;;;;;2.30;1.20;;;;;;;21.39;57.08;98690.48;105806;1256;59616;-79
2023/06/28 08:20:48;;;;;;;3.80;1.30;;;;;;;21.18;57.34;98690.73;105857;1253;59554;-81
2023/06/28 08:23:16;;;;;;;2.60;1.00;;;;;;;21.40;57.87;98682.22;105800;1257;64547;-78
2023/06/28 08:25:43;;;;;;;2.90;1.50;;;;;;;21.54;56.76;98677.77;105827;1257;59883;-78
2023/06/28 08:28:09;;;;;;;2.40;1.20;;;;;;;21.71;56.71;98669.02;105852;1257;64117;-79
2023/06/28 08:30:36;;;;;;;1.90;1.20;;;;;;;21.71;56.63;98671.98;105765;1257;59683;-78
2023/06/28 08:33:03;;;;;;;1.80;1.30;;;;;;;21.82;56.76;98675.13;105733;1256;59544;-78
2023/06/28 08:35:29;;;;;;;2.90;1.60;;;;;;;21.98;55.68;98679.45;105825;1257;65098;-78
2023/06/28 08:37:56;;;;;;;2.40;1.10;;;;;;;22.07;55.27;98670.40;105454;1260;61179;-78
2023/06/28 08:40:27;;;;;;;3.20;1.30;;;;;;;22.30;54.53;98662.69;105516;1256;62882;-82
2023/06/28 08:42:58;;;;;;;3.40;1.00;;;;;;;22.30;53.16;98665.48;105756;1253;59667;-80
2023/06/28 08:45:25;;;;;;;2.80;2.40;;;;;;;21.87;53.23;98666.27;105735;1255;59614;-77
2023/06/28 08:47:54;;;;;;;1.90;1.00;;;;;;;21.59;54.33;98659.75;105762;1254;64873;-78
2023/06/28 08:50:22;;;;;;;2.40;1.70;;;;;;;21.84;54.77;98657.40;105510;1260;60787;-77
2023/06/28 08:52:50;;;;;;;2.90;1.30;;;;;;;21.88;53.81;98659.42;105752;1252;63817;-78
2023/06/28 08:55:22;;;;;;;1.20;1.10;;;;;;;21.88;53.62;98656.36;105716;1253;59618;-79
2023/06/28 08:57:48;;;;;;;2.80;1.10;;;;;;;22.06;53.33;98651.60;105992;1253;60332;-79
2023/06/28 09:00:16;;;;;;;2.50;1.20;;;;;;;22.28;53.53;98646.71;105512;1253;64758;-81
2023/06/28 09:02:43;;;;;;;3.60;1.10;;;;;;;22.51;53.41;98643.15;105771;1257;59589;-79
2023/06/28 09:05:11;;;;;;;3.60;1.30;;;;;;;22.59;52.35;98634.06;105770;1253;63884;-79
2023/06/28 09:07:39;;;;;;;4.80;1.40;;;;;;;22.50;51.34;98638.00;105767;1256;59731;-81
2023/06/28 09:10:08;;;;;;;2.50;1.10;;;;;;;22.51;51.65;98637.17;105711;1259;59687;-80
2023/06/28 09:12:35;;;;;;;8.50;2.40;;;;;;;22.59;49.73;98627.84;105801;1258;65810;-79
2023/06/28 09:25:27;;;;;;;2.50;1.20;;;;;;;23.19;50.31;98624.21;102714;1291;601060;-80
2023/06/28 09:27:55;;;;;;;2.60;1.20;;;;;;;23.06;50.09;98622.05;105273;1273;59268;-81
2023/06/28 09:30:22;;;;;;;1.60;0.90;;;;;;;22.80;50.36;98623.80;106505;1260;59122;-81
2023/06/28 09:32:52;;;;;;;4.90;1.30;;;;;;;22.85;51.16;98618.67;105444;1259;63129;-80
2023/06/28 09:35:21;;;;;;;3.60;1.50;;;;;;;23.21;51.32;98618.56;105517;1258;59264;-81
2023/06/28 09:37:54;;;;;;;7.70;2.30;;;;;;;23.54;50.85;98619.11;105904;1259;65828;-81
2023/06/28 09:40:21;;;;;;;2.00;1.30;;;;;;;23.93;50.59;98613.48;105686;1258;59260;-82
2023/06/28 09:42:49;;;;;;;2.90;1.20;;;;;;;24.25;48.22;98617.23;105810;1258;59382;-82
2023/06/28 09:45:31;;;;;;;3.20;1.00;;;;;;;24.25;46.14;98626.65;106028;1258;63623;-84
2023/06/28 09:48:00;;;;;;;15.30;2.10;;;;;;;23.40;43.35;98640.30;106084;1257;59316;-80
2023/06/28 09:50:38;;;;;;;3.50;1.10;;;;;;;22.15;44.63;98655.77;105828;1258;64671;-80
2023/06/28 09:53:11;;;;;;;2.40;0.90;;;;;;;21.08;47.69;98664.52;105725;1255;59661;-84
2023/06/28 09:55:40;;;;;;;5.50;1.00;;;;;;;20.29;50.08;98671.68;105975;1258;59567;-75
2023/06/28 09:58:17;;;;;;;2.60;1.00;;;;;;;19.84;52.09;98675.02;105766;1254;64155;-77
2023/06/28 10:00:48;;;;;;;2.20;1.20;;;;;;;19.54;53.74;98672.86;105686;1254;59766;-75
2023/06/28 10:03:20;;;;;;;3.40;1.10;;;;;;;19.42;54.66;98663.36;105767;1259;63582;-77
2023/06/28 10:05:50;;;;;;;2.50;1.00;;;;;;;19.51;54.97;98652.49;105698;1259;59731;-76
2023/06/28 10:08:16;;;;;;;2.30;0.70;;;;;;;19.67;54.99;98652.89;105740;1254;59690;-77
2023/06/28 10:10:46;;;;;;;2.10;1.30;;;;;;;19.93;54.88;98652.08;105704;1259;64194;-76
2023/06/28 10:13:21;;;;;;;2.50;1.20;;;;;;;20.17;55.04;98651.73;105698;1259;60833;-75
2023/06/28 10:16:13;;;;;;;2.60;1.00;;;;;;;20.50;55.18;98650.69;105686;1256;63762;-77
2023/06/28 10:18:41;;;;;;;2.80;1.50;;;;;;;21.09;55.63;98647.59;105659;1258;59543;-76
2023/06/28 10:21:09;;;;;;;2.00;1.20;;;;;;;21.42;55.18;98646.09;105728;1254;59695;-75
2023/06/28 10:23:39;;;;;;;2.30;1.30;;;;;;;21.59;55.38;98650.40;105710;1254;64109;-77
2023/06/28 10:26:07;;;;;;;2.40;1.20;;;;;;;21.67;55.00;98650.67;105738;1259;60091;-76
2023/06/28 10:28:35;;;;;;;1.70;1.00;;;;;;;21.55;54.43;98645.96;105692;1256;62927;-75
2023/06/28 10:31:05;;;;;;;3.50;1.30;;;;;;;21.19;55.02;98644.13;105703;1256;59728;-77
2023/06/28 10:33:33;;;;;;;1.90;1.20;;;;;;;20.82;55.55;98647.44;105689;1258;59676;-76
2023/06/28 10:36:00;;;;;;;2.60;1.20;;;;;;;20.65;56.30;98643.29;105544;1254;65924;-76
2023/06/28 10:38:31;;;;;;;4.20;1.60;;;;;;;20.73;56.60;98643.38;105803;1254;60915;-75
2023/06/28 10:41:00;;;;;;;1.40;1.10;;;;;;;20.96;56.18;98640.79;105472;1254;65128;-76
2023/06/28 10:43:28;;;;;;;2.90;1.30;;;;;;;21.15;55.28;98635.07;105696;1259;59843;-75
2023/06/28 10:45:55;;;;;;;2.00;1.10;;;;;;;21.41;55.42;98631.02;105662;1259;59655;-74
2023/06/28 10:48:23;;;;;;;2.90;1.40;;;;;;;21.63;54.94;98628.24;105614;1254;65181;-74
2023/06/28 10:50:51;;;;;;;2.40;1.60;;;;;;;21.76;54.69;98626.99;105728;1258;61666;-79
2023/06/28 10:53:25;;;;;;;3.40;1.40;;;;;;;21.84;54.82;98624.86;105967;1257;65610;-81
2023/06/28 10:56:12;;;;;;;1.40;1.30;;;;;;;21.94;54.52;98617.13;106230;1253;59798;-78
2023/06/28 10:58:43;;;;;;;5.20;1.40;;;;;;;22.07;54.81;98611.20;105883;1253;59682;-83
2023/06/28 11:01:13;;;;;;;3.20;1.80;;;;;;;22.14;54.30;98607.84;106210;1254;66285;-82
2023/06/28 11:03:43;;;;;;;4.60;1.70;;;;;;;22.12;53.68;98601.85;106513;1257;60789;-84
2023/06/28 11:06:12;;;;;;;2.50;1.40;;;;;;;22.01;53.21;98598.95;107013;1253;63986;-83
2023/06/28 11:08:42;;;;;;;6.30;2.00;;;;;;;21.88;53.67;98588.36;105997;1257;59714;-77
2023/06/28 11:11:31;;;;;;;2.20;1.50;;;;;;;21.98;54.16;98590.74;105891;1253;59637;-78
2023/06/28 11:13:57;;;;;;;3.90;1.60;;;;;;;22.24;54.01;98595.35;105358;1262;64266;-80
2023/06/28 11:16:25;;;;;;;1.70;1.30;;;;;;;22.58;53.86;98591.19;105591;1262;60996;-81
2023/06/28 11:18:52;;;;;;;4.20;1.70;;;;;;;22.90;52.85;98596.85;105693;1258;63786;-83
2023/06/28 11:21:25;;;;;;;4.10;1.60;;;;;;;23.33;50.83;98604.93;105898;1257;59678;-84
2023/06/28 11:23:54;;;;;;;3.60;1.40;;;;;;;23.38;48.86;98606.08;105724;1262;59546;-79
2023/06/28 11:26:38;;;;;;;3.00;1.50;;;;;;;23.39;49.41;98608.84;105584;1259;64790;-77
2023/06/28 11:29:18;;;;;;;3.10;1.30;;;;;;;23.43;48.39;98615.45;105480;1262;59869;-81
2023/06/28 11:31:50;;;;;;;2.40;1.40;;;;;;;23.07;47.52;98633.61;105622;1257;63894;-81
2023/06/28 11:34:18;;;;;;;1.40;1.10;;;;;;;22.20;46.31;98638.94;105598;1262;59663;-77
2023/06/28 11:36:47;;;;;;;4.10;1.20;;;;;;;21.46;47.22;98651.32;105417;1257;59746;-77
2023/06/28 11:39:18;;;;;;;2.70;1.00;;;;;;;21.07;47.85;98658.66;105392;1257;63748;-79